createdAt,value
2018-11-05T04:28:15.370Z,18.17
2018-11-05T04:30:44.546Z,18.27
2018-11-05T04:33:13.700Z,19.77
2018-11-05T04:35:42.855Z,18.30
2018-11-05T04:38:11.977Z,22.50
2018-11-05T04:40:41.131Z,19.60
2018-11-05T04:43:10.256Z,17.37
2018-11-05T04:45:39.411Z,20.20
2018-11-05T04:48:08.636Z,20.47
2018-11-05T04:50:37.799Z,19.47
2018-11-05T04:53:07.050Z,17.07
2018-11-05T04:55:36.202Z,20.47
2018-11-05T04:58:06.351Z,17.63
2018-11-05T05:00:35.491Z,16.90
2018-11-05T05:03:04.649Z,18.13
2018-11-05T05:05:33.797Z,18.53
2018-11-05T05:08:02.908Z,19.23
2018-11-05T05:10:32.066Z,16.13
2018-11-05T05:13:01.910Z,17.73
2018-11-05T05:15:31.121Z,19.30
2018-11-05T05:18:00.252Z,19.03
2018-11-05T05:20:29.424Z,18.40
2018-11-05T05:22:58.771Z,18.83
2018-11-05T05:25:27.727Z,18.53
2018-11-05T05:27:56.866Z,18.90
2018-11-05T05:30:26.054Z,19.73
2018-11-05T05:32:55.217Z,18.20
2018-11-05T05:35:24.431Z,19.03
2018-11-05T05:37:53.634Z,17.80
2018-11-05T05:40:22.807Z,21.50
2018-11-05T05:42:51.955Z,17.60
2018-11-05T05:45:21.138Z,17.80
2018-11-05T05:47:50.334Z,22.23
2018-11-05T05:50:19.530Z,17.87
2018-11-05T05:52:49.626Z,17.50
2018-11-05T05:55:18.750Z,20.00
2018-11-05T05:57:47.930Z,20.13
2018-11-05T06:00:18.011Z,19.70
2018-11-05T06:02:47.141Z,19.13
2018-11-05T06:05:16.502Z,21.87
2018-11-05T06:07:45.676Z,19.60
2018-11-05T06:10:15.646Z,17.37
2018-11-05T06:12:44.943Z,18.57
2018-11-05T06:15:15.181Z,20.73
2018-11-05T06:17:44.362Z,21.33
2018-11-05T06:20:16.503Z,18.57
2018-11-05T06:22:46.451Z,21.73
2018-11-05T06:25:15.915Z,19.10
2018-11-05T06:27:45.117Z,23.00
2018-11-05T06:30:16.366Z,23.67
2018-11-05T06:32:46.443Z,20.53
2018-11-05T06:35:15.699Z,21.83
2018-11-05T06:37:44.775Z,22.17
2018-11-05T06:40:16.321Z,20.13
2018-11-05T06:42:45.766Z,20.80
2018-11-05T06:45:16.159Z,21.33
2018-11-05T06:47:45.922Z,21.60
2018-11-05T06:50:17.424Z,21.50
2018-11-05T06:52:46.720Z,22.40
2018-11-05T06:55:16.335Z,20.43
2018-11-05T06:57:45.653Z,22.60
2018-11-05T07:00:16.748Z,22.57
2018-11-05T07:02:46.021Z,25.53
2018-11-05T07:05:15.484Z,22.07
2018-11-05T07:07:44.663Z,24.27
2018-11-05T07:10:14.719Z,22.37
2018-11-05T07:12:44.333Z,24.23
2018-11-05T07:15:14.628Z,21.80
2018-11-05T07:17:44.784Z,24.60
2018-11-05T07:20:15.351Z,19.73
2018-11-05T07:22:45.217Z,20.80
2018-11-05T07:25:15.019Z,21.97
2018-11-05T07:27:44.512Z,20.20
2018-11-05T07:30:18.439Z,23.83
2018-11-05T07:32:48.470Z,23.40
2018-11-05T07:35:17.651Z,19.90
2018-11-05T07:37:46.815Z,22.13
2018-11-05T07:40:17.428Z,21.50
2018-11-05T07:42:47.832Z,21.47
2018-11-05T07:45:20.709Z,21.73
2018-11-05T07:47:50.580Z,23.53
2018-11-05T07:50:20.561Z,22.97
2018-11-05T07:52:53.769Z,19.10
2018-11-05T07:55:23.722Z,20.83
2018-11-05T07:57:57.343Z,23.43
2018-11-05T08:00:31.719Z,22.27
2018-11-05T08:03:00.923Z,24.13
2018-11-05T08:05:30.012Z,22.27
2018-11-05T08:07:59.151Z,22.13
2018-11-05T08:10:28.362Z,22.50
2018-11-05T08:12:57.519Z,22.80
2018-11-05T08:15:26.823Z,22.87
2018-11-05T08:17:56.551Z,22.70
2018-11-05T08:20:25.745Z,21.83
2018-11-05T08:22:55.006Z,27.83
2018-11-05T08:25:24.351Z,24.07
2018-11-05T08:27:56.687Z,22.50
2018-11-05T08:30:26.451Z,26.87
2018-11-05T08:32:56.003Z,26.50
2018-11-05T08:35:28.145Z,22.50
2018-11-05T08:37:57.348Z,25.07
2018-11-05T08:40:28.088Z,24.23
2018-11-05T08:42:58.997Z,23.40
2018-11-05T08:45:29.884Z,23.97
2018-11-05T08:48:00.183Z,23.80
2018-11-05T08:50:30.129Z,25.70
2018-11-05T08:53:04.903Z,26.07
2018-11-05T08:55:34.063Z,23.27
2018-11-05T08:58:03.346Z,26.23
2018-11-05T09:00:37.794Z,26.33
2018-11-05T09:03:07.004Z,24.40
2018-11-05T09:05:36.421Z,23.20
2018-11-05T09:08:12.423Z,24.17
2018-11-05T09:10:49.156Z,23.57
2018-11-05T09:13:17.911Z,21.57
2018-11-05T09:15:47.122Z,24.90
2018-11-05T09:18:17.559Z,27.03
2018-11-05T09:20:47.250Z,27.63
2018-11-05T09:23:16.494Z,27.20
2018-11-05T09:25:50.069Z,25.97
2018-11-05T09:28:19.540Z,27.80
2018-11-05T09:30:49.435Z,26.77
2018-11-05T09:33:19.585Z,31.93
2018-11-05T09:35:51.474Z,28.23
2018-11-05T09:38:21.937Z,27.73
2018-11-05T09:40:52.635Z,27.83
2018-11-05T09:43:23.955Z,27.17
2018-11-05T09:45:53.412Z,25.80
2018-11-05T09:48:22.659Z,27.17
2018-11-05T09:50:52.201Z,26.50
2018-11-05T09:53:21.612Z,25.03
2018-11-05T09:55:51.084Z,25.77
2018-11-05T09:58:21.528Z,25.77
2018-11-05T10:00:52.150Z,25.50
2018-11-05T10:03:22.705Z,28.80
2018-11-05T10:05:51.731Z,26.23
2018-11-05T10:08:21.281Z,29.10
2018-11-05T10:10:50.726Z,29.27
2018-11-05T10:13:19.910Z,25.10
2018-11-05T10:15:50.244Z,26.43
2018-11-05T10:18:21.422Z,27.90
2018-11-05T10:20:50.619Z,25.67
2018-11-05T10:23:19.895Z,28.03
2018-11-05T10:25:51.263Z,26.03
2018-11-05T10:28:20.537Z,24.30
2018-11-05T10:30:49.741Z,24.77
2018-11-05T10:33:20.228Z,26.03
2018-11-05T10:35:58.220Z,24.97
2018-11-05T10:38:30.136Z,25.37
2018-11-05T10:41:00.438Z,26.00
2018-11-05T10:43:29.575Z,26.97
2018-11-05T10:45:58.743Z,25.43
2018-11-05T10:48:27.850Z,24.27
2018-11-05T10:50:57.007Z,26.10
2018-11-05T10:53:26.171Z,30.73
2018-11-05T10:55:55.316Z,23.83
2018-11-05T10:58:24.426Z,24.10
2018-11-05T11:00:59.021Z,27.00
2018-11-05T11:03:35.809Z,25.83
2018-11-05T11:06:06.011Z,23.77
2018-11-05T11:08:37.108Z,26.10
2018-11-05T11:11:07.964Z,26.13
2018-11-05T11:13:41.260Z,23.77
2018-11-05T11:16:12.182Z,27.27
2018-11-05T11:18:43.085Z,27.70
2018-11-05T11:21:19.323Z,24.53
2018-11-05T11:23:48.955Z,30.13
2018-11-05T11:26:19.954Z,24.67
2018-11-05T11:28:49.613Z,28.10
2018-11-05T11:31:19.282Z,29.10
2018-11-05T11:33:48.428Z,27.10
2018-11-05T11:36:17.566Z,28.40
2018-11-05T11:38:46.795Z,29.77
2018-11-05T11:41:15.976Z,25.37
2018-11-05T11:43:45.138Z,26.30
2018-11-05T11:46:14.307Z,23.30
2018-11-05T11:48:43.533Z,28.67
2018-11-05T11:51:12.707Z,26.17
2018-11-05T11:53:41.939Z,26.87
2018-11-05T11:56:11.209Z,26.40
2018-11-05T11:58:40.408Z,25.50
2018-11-05T12:01:09.583Z,26.23
2018-11-05T12:03:38.772Z,28.23
2018-11-05T12:06:08.139Z,29.90
2018-11-05T12:08:37.458Z,28.70
2018-11-05T12:11:06.900Z,28.23
2018-11-05T12:13:36.270Z,28.97
2018-11-05T12:16:06.683Z,31.40
2018-11-05T12:18:35.955Z,26.53
2018-11-05T12:21:05.459Z,25.00
2018-11-05T12:23:34.739Z,24.83
2018-11-05T12:26:04.151Z,26.70
2018-11-05T12:28:33.518Z,29.67
2018-11-05T12:31:02.894Z,27.70
2018-11-05T12:33:32.243Z,31.90
2018-11-05T12:36:01.593Z,28.07
2018-11-05T12:38:31.104Z,26.10
2018-11-05T12:41:00.376Z,25.27
2018-11-05T12:43:29.780Z,25.17
2018-11-05T12:45:59.128Z,29.87
2018-11-05T12:48:28.482Z,26.53
2018-11-05T12:50:58.430Z,28.03
2018-11-05T12:53:27.901Z,27.13
2018-11-05T12:55:57.366Z,28.53
2018-11-05T12:58:26.706Z,29.80
2018-11-05T13:00:56.008Z,26.07
2018-11-05T13:03:25.457Z,26.00
2018-11-05T13:05:54.795Z,26.43
2018-11-05T13:08:24.146Z,24.17
2018-11-05T13:10:53.480Z,29.50
2018-11-05T13:13:22.852Z,21.93
2018-11-05T13:15:52.221Z,26.57
2018-11-05T13:18:21.438Z,25.87
2018-11-05T13:20:50.598Z,26.77
2018-11-05T13:23:25.398Z,30.27
2018-11-05T13:25:54.732Z,25.70
2018-11-05T13:28:24.069Z,27.30
2018-11-05T13:30:53.434Z,27.37
2018-11-05T13:33:22.703Z,27.00
2018-11-05T13:35:52.015Z,26.70
2018-11-05T13:38:21.353Z,25.47
2018-11-05T13:40:50.698Z,22.40
2018-11-05T13:43:20.001Z,21.90
2018-11-05T13:45:49.403Z,23.93
2018-11-05T13:48:18.681Z,25.47
2018-11-05T13:50:47.499Z,26.10
2018-11-05T13:53:16.653Z,27.83
2018-11-05T13:55:45.810Z,27.70
2018-11-05T13:58:14.993Z,23.40
2018-11-05T14:00:44.159Z,26.73
2018-11-05T14:03:13.359Z,26.00
2018-11-05T14:05:42.611Z,23.40
2018-11-05T14:08:11.775Z,23.53
2018-11-05T14:10:40.977Z,25.63
2018-11-05T14:13:10.134Z,23.40
2018-11-05T14:15:39.351Z,22.63
2018-11-05T14:18:08.553Z,22.23
2018-11-05T14:20:37.762Z,21.62
2018-11-05T14:23:06.935Z,21.57
2018-11-05T14:25:36.165Z,21.33
2018-11-05T14:28:05.941Z,19.27
2018-11-05T14:30:34.756Z,22.80
2018-11-05T14:33:03.895Z,18.75
2018-11-05T14:35:33.114Z,21.40
2018-11-05T14:38:02.957Z,21.00
2018-11-05T14:40:32.630Z,19.95
2018-11-05T14:43:02.085Z,20.80
2018-11-05T14:45:31.347Z,27.17
2018-11-05T14:48:00.620Z,19.05
2018-11-05T14:50:29.894Z,20.68
2018-11-05T14:52:59.495Z,19.60
2018-11-05T14:55:28.721Z,20.72
2018-11-05T14:57:57.983Z,22.80
2018-11-05T15:00:28.718Z,22.40
2018-11-05T15:02:58.606Z,19.33
2018-11-05T15:05:28.259Z,21.97
2018-11-05T15:07:58.275Z,25.23
2018-11-05T15:10:28.052Z,19.80
2018-11-05T15:12:58.138Z,21.50
2018-11-05T15:15:27.463Z,22.75
2018-11-05T15:18:03.137Z,22.33
2018-11-05T15:20:32.572Z,19.87
2018-11-05T15:23:02.727Z,21.80
2018-11-05T15:25:33.372Z,21.13
2018-11-05T15:28:03.848Z,20.27
2018-11-05T15:30:33.289Z,21.90
2018-11-05T15:33:03.656Z,22.27
2018-11-05T15:35:33.137Z,23.33
2018-11-05T15:38:02.389Z,20.20
2018-11-05T15:40:31.546Z,25.57
2018-11-05T15:43:00.719Z,33.70
2018-11-05T15:45:29.874Z,31.70
2018-11-05T15:47:59.024Z,27.73
2018-11-05T15:50:28.175Z,35.60
2018-11-05T15:52:57.970Z,30.67
2018-11-05T15:55:26.659Z,30.10
2018-11-05T15:57:56.534Z,31.93
2018-11-05T16:00:25.967Z,29.77
2018-11-05T16:02:58.627Z,25.00
2018-11-05T16:05:27.827Z,27.00
2018-11-05T16:07:57.056Z,36.37
2018-11-05T16:10:26.275Z,28.10
2018-11-05T16:12:55.631Z,31.10
2018-11-05T16:15:26.168Z,30.83
2018-11-05T16:17:55.366Z,28.40
2018-11-05T16:20:24.551Z,28.70
2018-11-05T16:22:53.742Z,31.17
2018-11-05T16:25:24.942Z,25.03
2018-11-05T16:27:54.199Z,23.50
2018-11-05T16:30:23.410Z,27.13
2018-11-05T16:32:53.282Z,28.70
2018-11-05T16:35:23.659Z,30.17
2018-11-05T16:37:53.921Z,35.97
2018-11-05T16:40:23.069Z,38.40
2018-11-05T16:42:52.719Z,36.50
2018-11-05T16:45:21.922Z,33.80
2018-11-05T16:47:51.431Z,32.63
2018-11-05T16:50:22.996Z,30.53
2018-11-05T16:52:55.870Z,28.60
2018-11-05T16:55:25.534Z,25.93
2018-11-05T16:57:55.431Z,28.80
2018-11-05T17:00:25.095Z,25.50
2018-11-05T17:02:54.787Z,22.60
2018-11-05T17:05:23.995Z,32.17
2018-11-05T17:07:53.233Z,26.60
2018-11-05T17:10:22.382Z,28.73
2018-11-05T17:12:51.550Z,28.27
2018-11-05T17:15:20.742Z,23.77
2018-11-05T17:17:49.951Z,22.33
2018-11-05T17:20:20.214Z,23.97
2018-11-05T17:22:49.419Z,21.27
2018-11-05T17:25:18.607Z,25.97
2018-11-05T17:27:48.278Z,26.70
2018-11-05T17:30:20.813Z,26.83
2018-11-05T17:32:50.122Z,26.03
2018-11-05T17:35:19.782Z,23.47
2018-11-05T17:37:49.371Z,22.50
2018-11-05T17:40:21.196Z,27.17
2018-11-05T17:42:50.532Z,23.07
2018-11-05T17:45:20.525Z,26.23
2018-11-05T17:47:50.143Z,23.27
2018-11-05T17:50:20.773Z,22.80
2018-11-05T17:52:49.962Z,26.77
2018-11-05T17:55:19.225Z,26.40
2018-11-05T17:57:49.039Z,25.10
2018-11-05T18:00:19.567Z,26.33
2018-11-05T18:02:49.367Z,26.67
2018-11-05T18:05:19.066Z,25.43
2018-11-05T18:07:48.270Z,28.53
2018-11-05T18:10:17.659Z,26.03
2018-11-05T18:12:46.808Z,26.67
2018-11-05T18:15:16.874Z,25.87
2018-11-05T18:17:46.778Z,27.43
2018-11-05T18:20:16.722Z,25.80
2018-11-05T18:22:45.894Z,24.47
2018-11-05T18:25:16.336Z,25.27
2018-11-05T18:27:45.687Z,27.33
2018-11-05T18:30:15.388Z,23.37
2018-11-05T18:32:44.771Z,23.27
2018-11-05T18:35:14.588Z,23.70
2018-11-05T18:37:45.369Z,23.13
2018-11-05T18:40:15.541Z,28.33
2018-11-05T18:42:45.164Z,29.43
2018-11-05T18:45:14.465Z,33.90
2018-11-05T18:47:43.807Z,45.50
2018-11-05T18:50:14.725Z,33.90
2018-11-05T18:52:44.118Z,33.43
2018-11-05T18:55:14.598Z,32.67
2018-11-05T18:57:43.975Z,28.53
2018-11-05T19:00:18.344Z,25.67
2018-11-05T19:02:47.657Z,30.60
2018-11-05T19:05:17.446Z,28.40
2018-11-05T19:07:46.911Z,27.60
2018-11-05T19:10:16.211Z,26.43
2018-11-05T19:12:45.418Z,27.23
2018-11-05T19:15:15.478Z,27.43
2018-11-05T19:17:45.586Z,30.40
2018-11-05T19:20:14.844Z,32.57
2018-11-05T19:22:44.770Z,34.17
2018-11-05T19:25:14.848Z,31.50
2018-11-05T19:27:44.850Z,30.17
2018-11-05T19:30:18.553Z,26.73
2018-11-05T19:32:47.788Z,29.53
2018-11-05T19:35:17.153Z,30.00
2018-11-05T19:37:47.167Z,35.20
2018-11-05T19:40:17.160Z,28.40
2018-11-05T19:42:47.224Z,28.50
2018-11-05T19:45:17.670Z,26.23
2018-11-05T19:47:46.935Z,30.40
2018-11-05T19:50:17.721Z,31.30
2018-11-05T19:52:47.612Z,26.30
2018-11-05T19:55:17.906Z,39.33
2018-11-05T19:57:47.971Z,34.47
2018-11-05T20:00:22.663Z,31.23
2018-11-05T20:02:53.244Z,30.10
2018-11-05T20:05:22.813Z,30.43
2018-11-05T20:07:53.806Z,28.33
2018-11-05T20:10:25.584Z,30.47
2018-11-05T20:12:57.913Z,33.63
2018-11-05T20:15:27.527Z,35.40
2018-11-05T20:17:58.530Z,34.67
2018-11-05T20:20:30.256Z,32.33
2018-11-05T20:23:03.668Z,30.23
2018-11-05T20:25:34.533Z,32.67
2018-11-05T20:28:05.424Z,30.40
2018-11-05T20:30:36.195Z,31.67
2018-11-05T20:33:11.294Z,30.70
2018-11-05T20:35:43.712Z,31.67
2018-11-05T20:38:16.182Z,39.40
2018-11-05T20:40:49.132Z,57.17
2018-11-05T20:43:19.487Z,66.13
2018-11-05T20:45:52.512Z,64.87
2018-11-05T20:48:27.418Z,69.53
2018-11-05T20:51:00.252Z,56.40
2018-11-05T20:53:32.409Z,49.70
2018-11-05T20:56:09.320Z,46.17
2018-11-05T20:58:52.482Z,57.43
2018-11-05T21:01:23.509Z,75.77
2018-11-05T21:04:00.486Z,81.90
2018-11-05T21:06:38.664Z,64.10
2018-11-05T21:09:11.399Z,48.10
2018-11-05T21:11:45.395Z,41.83
2018-11-05T21:14:17.371Z,36.10
2018-11-05T21:16:49.613Z,37.73
2018-11-05T21:19:23.167Z,34.70
2018-11-05T21:21:54.161Z,31.40
2018-11-05T21:24:24.055Z,32.00
2018-11-05T21:26:54.585Z,33.07
2018-11-05T21:29:26.183Z,30.13
2018-11-05T21:31:56.597Z,28.97
2018-11-05T21:34:26.117Z,33.80
2018-11-05T21:36:55.710Z,29.67
2018-11-05T21:39:25.724Z,35.63
2018-11-05T21:41:55.096Z,34.13
2018-11-05T21:44:24.782Z,35.20
2018-11-05T21:46:54.493Z,34.70
2018-11-05T21:49:25.716Z,31.23
2018-11-05T21:51:56.750Z,33.20
2018-11-05T22:09:29.275Z,37.53
2018-11-05T22:12:01.582Z,40.40
2018-11-05T22:14:32.071Z,40.53
